createdAt,value
2018-08-04T00:00:28.819Z,14.70
2018-08-04T00:02:57.826Z,14.40
2018-08-04T00:05:26.804Z,13.47
2018-08-04T00:07:55.852Z,14.20
2018-08-04T00:10:24.879Z,13.40
2018-08-04T00:12:53.899Z,14.77
2018-08-04T00:15:22.989Z,13.80
2018-08-04T00:17:51.955Z,14.77
2018-08-04T00:20:20.959Z,15.00
2018-08-04T00:22:49.946Z,14.17
2018-08-04T00:25:18.911Z,13.47
2018-08-04T00:27:47.886Z,14.20
2018-08-04T00:30:16.859Z,13.00
2018-08-04T00:32:45.832Z,13.03
2018-08-04T00:35:14.891Z,13.53
2018-08-04T00:37:43.878Z,14.07
2018-08-04T00:40:13.414Z,13.57
2018-08-04T00:42:42.778Z,13.83
2018-08-04T00:45:11.797Z,13.00
2018-08-04T00:47:40.773Z,14.23
2018-08-04T00:50:10.580Z,12.70
2018-08-04T00:52:39.574Z,14.27
2018-08-04T00:55:08.619Z,13.93
2018-08-04T00:57:37.606Z,13.87
2018-08-04T01:00:06.594Z,13.97
2018-08-04T01:02:35.645Z,13.93
2018-08-04T01:05:04.727Z,14.43
2018-08-04T01:07:33.682Z,14.43
2018-08-04T01:10:04.380Z,14.47
2018-08-04T01:12:33.649Z,13.20
2018-08-04T01:15:02.714Z,15.10
2018-08-04T01:17:31.898Z,15.73
2018-08-04T01:20:03.994Z,14.10
2018-08-04T01:22:34.091Z,14.53
2018-08-04T01:25:03.070Z,13.33
2018-08-04T01:27:32.099Z,14.53
2018-08-04T01:30:01.118Z,14.00
2018-08-04T01:32:30.118Z,13.70
2018-08-04T01:34:59.164Z,14.83
2018-08-04T01:37:28.143Z,14.20
2018-08-04T01:39:57.161Z,14.87
2018-08-04T01:42:26.131Z,15.20
2018-08-04T01:44:55.105Z,14.40
2018-08-04T01:47:24.070Z,15.07
2018-08-04T01:49:53.030Z,14.60
2018-08-04T01:52:22.019Z,14.20
2018-08-04T01:54:51.008Z,14.60
2018-08-04T01:57:20.017Z,14.30
2018-08-04T01:59:49.022Z,14.10
2018-08-04T02:02:17.981Z,14.23
2018-08-04T02:04:47.219Z,13.90
2018-08-04T02:07:16.223Z,14.63
2018-08-04T02:09:45.194Z,14.97
2018-08-04T02:12:14.171Z,14.30
2018-08-04T02:14:43.144Z,14.13
2018-08-04T02:19:39.227Z,12.77
2018-08-04T02:22:08.189Z,12.87
2018-08-04T02:24:37.196Z,12.90
2018-08-04T02:27:06.182Z,12.77
2018-08-04T02:29:35.207Z,12.90
2018-08-04T02:32:04.195Z,13.60
2018-08-04T02:34:33.215Z,11.80
2018-08-04T02:37:02.181Z,12.83
2018-08-04T02:39:31.220Z,14.63
2018-08-04T02:42:00.251Z,12.67
2018-08-04T02:44:29.214Z,14.43
2018-08-04T02:46:58.194Z,13.17
2018-08-04T02:49:27.178Z,12.30
2018-08-04T02:51:56.147Z,13.40
2018-08-04T02:54:25.143Z,13.10
2018-08-04T02:56:54.107Z,13.70
2018-08-04T02:59:23.058Z,12.93
2018-08-04T03:01:52.015Z,13.90
2018-08-04T03:04:20.983Z,13.13
2018-08-04T03:06:49.991Z,14.37
2018-08-04T03:09:18.951Z,13.70
2018-08-04T03:11:47.911Z,13.10
2018-08-04T03:14:16.898Z,14.00
2018-08-04T03:16:45.873Z,15.83
2018-08-04T03:19:14.832Z,15.47
2018-08-04T03:21:43.812Z,15.57
2018-08-04T03:24:12.803Z,16.63
2018-08-04T03:26:41.763Z,16.63
2018-08-04T03:29:10.715Z,16.77
2018-08-04T03:31:39.708Z,17.50
2018-08-04T03:34:08.682Z,16.13
2018-08-04T03:36:37.673Z,16.57
2018-08-04T03:39:08.539Z,17.73
2018-08-04T03:41:37.575Z,17.33
2018-08-04T03:44:06.739Z,17.70
2018-08-04T03:46:36.007Z,17.27
2018-08-04T03:49:04.979Z,17.83
2018-08-04T03:51:33.982Z,17.40
2018-08-04T03:54:03.039Z,18.07
2018-08-04T03:56:31.995Z,17.77
2018-08-04T03:59:00.968Z,17.47
2018-08-04T04:01:29.976Z,17.47
2018-08-04T04:03:58.959Z,17.83
2018-08-04T04:06:27.947Z,19.47
2018-08-04T04:08:56.915Z,21.00
2018-08-04T04:11:25.937Z,19.63
2018-08-04T04:13:54.914Z,18.87
2018-08-04T04:16:23.888Z,18.73
2018-08-04T04:18:52.904Z,19.70
2018-08-04T04:23:56.454Z,19.97
2018-08-04T04:26:25.419Z,19.67
2018-08-04T04:28:54.382Z,19.73
2018-08-04T04:31:23.346Z,19.87
2018-08-04T04:33:52.434Z,20.27
2018-08-04T04:36:21.407Z,21.53
2018-08-04T04:38:50.450Z,19.83
2018-08-04T04:41:19.708Z,21.13
2018-08-04T04:43:48.740Z,20.87
2018-08-04T04:46:17.690Z,21.87
2018-08-04T04:48:46.667Z,21.50
2018-08-04T04:51:15.614Z,20.83
2018-08-04T04:53:44.625Z,20.57
2018-08-04T04:56:13.655Z,21.53
2018-08-04T04:58:42.590Z,22.47
2018-08-04T05:01:11.556Z,20.83
2018-08-04T05:03:40.578Z,21.90
2018-08-04T05:06:09.546Z,20.20
2018-08-04T05:08:38.547Z,21.93
2018-08-04T05:11:07.519Z,22.90
2018-08-04T05:13:36.555Z,22.03
2018-08-04T05:16:05.489Z,23.17
2018-08-04T05:18:34.450Z,22.93
2018-08-04T05:21:03.486Z,24.20
2018-08-04T05:23:32.546Z,25.73
2018-08-04T05:26:01.598Z,21.80
2018-08-04T05:28:30.622Z,24.20
2018-08-04T05:31:00.610Z,22.97
2018-08-04T05:33:29.616Z,21.60
2018-08-04T05:35:58.564Z,23.57
2018-08-04T05:38:27.530Z,23.23
2018-08-04T05:43:30.619Z,22.07
2018-08-04T05:45:59.622Z,26.10
2018-08-04T05:48:28.582Z,22.73
2018-08-04T05:50:57.594Z,24.33
2018-08-04T05:53:26.603Z,25.00
2018-08-04T05:55:55.578Z,24.80
2018-08-04T05:58:24.563Z,21.80
2018-08-04T06:00:53.687Z,24.80
2018-08-04T06:03:22.704Z,24.20
2018-08-04T06:08:18.770Z,25.13
2018-08-04T06:10:47.810Z,24.17
2018-08-04T06:13:16.758Z,25.33
2018-08-04T06:15:45.723Z,26.97
2018-08-04T06:18:14.770Z,26.90
2018-08-04T06:20:43.706Z,27.03
2018-08-04T06:23:12.723Z,25.00
2018-08-04T06:25:41.717Z,25.53
2018-08-04T06:28:10.733Z,26.53
2018-08-04T06:30:39.743Z,25.13
2018-08-04T06:33:08.629Z,25.70
2018-08-04T06:35:37.694Z,25.83
2018-08-04T06:38:06.667Z,26.10
2018-08-04T06:40:35.686Z,23.27
2018-08-04T06:43:04.679Z,24.93
2018-08-04T06:45:33.678Z,26.37
2018-08-04T06:48:02.723Z,24.53
2018-08-04T06:50:33.067Z,25.00
2018-08-04T06:53:02.561Z,24.60
2018-08-04T06:55:31.642Z,21.80
2018-08-04T06:58:00.623Z,21.00
2018-08-04T07:00:29.598Z,19.63
2018-08-04T07:02:58.594Z,19.37
2018-08-04T07:05:27.594Z,20.57
2018-08-04T07:07:56.611Z,16.67
2018-08-04T07:10:25.527Z,13.87
2018-08-04T07:12:54.507Z,15.67
2018-08-04T07:15:23.471Z,15.03
2018-08-04T07:17:52.443Z,14.23
2018-08-04T07:20:21.402Z,17.13
2018-08-04T07:22:50.450Z,15.37
2018-08-04T07:25:19.374Z,18.03
2018-08-04T07:27:48.338Z,15.23
2018-08-04T07:30:17.350Z,15.27
2018-08-04T07:32:46.350Z,14.80
2018-08-04T07:35:15.359Z,16.33
2018-08-04T07:37:44.374Z,14.57
2018-08-04T07:40:13.370Z,12.50
2018-08-04T07:42:42.350Z,13.23
2018-08-04T07:45:11.374Z,11.23
2018-08-04T07:47:40.475Z,11.70
2018-08-04T07:50:09.451Z,11.00
2018-08-04T07:52:38.514Z,10.43
2018-08-04T07:55:07.484Z,10.43
2018-08-04T07:57:36.439Z,9.93
2018-08-04T08:00:06.159Z,12.77
2018-08-04T08:02:35.134Z,11.17
2018-08-04T08:05:04.155Z,11.43
2018-08-04T08:07:33.112Z,9.70
2018-08-04T08:10:02.078Z,9.97
2018-08-04T08:12:31.098Z,9.40
2018-08-04T08:15:00.066Z,8.80
2018-08-04T08:17:29.040Z,9.53
2018-08-04T08:19:58.003Z,8.13
2018-08-04T08:22:39.630Z,10.97
2018-08-04T08:25:09.186Z,10.03
2018-08-04T08:27:38.397Z,9.37
2018-08-04T08:30:12.836Z,8.60
2018-08-04T08:32:41.829Z,8.57
2018-08-04T08:35:11.325Z,7.17
2018-08-04T08:37:40.650Z,7.00
2018-08-04T08:40:09.991Z,8.80
2018-08-04T08:42:38.966Z,7.37
2018-08-04T08:45:09.049Z,6.80
2018-08-04T08:47:38.112Z,7.00
2018-08-04T08:50:10.106Z,7.80
2018-08-04T08:52:45.542Z,7.07
2018-08-04T08:55:14.566Z,6.57
2018-08-04T08:57:43.524Z,6.43
2018-08-04T09:00:12.502Z,7.57
2018-08-04T09:02:41.514Z,7.33
2018-08-04T09:05:10.942Z,7.93
2018-08-04T09:07:40.134Z,7.90
2018-08-04T09:10:11.580Z,7.10
2018-08-04T09:12:40.748Z,6.60
2018-08-04T09:15:09.795Z,7.80
2018-08-04T09:17:38.802Z,7.20
2018-08-04T09:20:08.611Z,7.80
2018-08-04T09:22:37.613Z,7.27
2018-08-04T09:25:07.027Z,9.20
2018-08-04T09:27:36.292Z,7.53
2018-08-04T09:30:07.501Z,6.77
2018-08-04T09:32:36.702Z,7.43
2018-08-04T09:35:05.782Z,7.37
2018-08-04T09:37:34.786Z,6.87
2018-08-04T09:40:03.959Z,7.23
2018-08-04T09:42:32.907Z,6.90
2018-08-04T09:45:01.879Z,7.00
2018-08-04T09:47:30.875Z,7.30
2018-08-04T09:49:59.830Z,7.87
2018-08-04T09:52:28.862Z,7.17
2018-08-04T09:54:57.802Z,7.07
2018-08-04T09:57:26.781Z,7.03
2018-08-04T09:59:55.768Z,7.60
2018-08-04T10:02:25.305Z,9.53
2018-08-04T10:04:55.136Z,7.10
2018-08-04T10:07:24.069Z,7.03
2018-08-04T10:09:53.159Z,7.00
2018-08-04T10:12:22.126Z,7.17
2018-08-04T10:14:51.154Z,9.27
2018-08-04T10:17:20.158Z,6.90
2018-08-04T10:19:49.120Z,7.60
2018-08-04T10:22:18.079Z,7.07
2018-08-04T10:24:47.115Z,8.67
2018-08-04T10:27:16.066Z,7.10
2018-08-04T10:29:45.036Z,7.50
2018-08-04T10:32:14.134Z,7.07
2018-08-04T10:34:42.982Z,7.37
2018-08-04T10:37:11.940Z,7.10
2018-08-04T10:39:40.918Z,6.90
2018-08-04T10:42:09.936Z,6.90
2018-08-04T10:44:38.862Z,7.83
2018-08-04T10:47:07.831Z,8.23
2018-08-04T10:49:43.352Z,7.50
2018-08-04T10:52:12.358Z,7.00
2018-08-04T10:54:41.659Z,6.93
2018-08-04T10:57:10.616Z,8.23
2018-08-04T10:59:39.626Z,7.03
2018-08-04T11:02:08.758Z,7.03
2018-08-04T11:04:37.741Z,9.93
2018-08-04T11:07:06.838Z,8.13
2018-08-04T11:09:35.822Z,8.80
2018-08-04T11:12:04.799Z,7.70
2018-08-04T11:14:33.807Z,7.20
2018-08-04T11:17:02.852Z,8.10
2018-08-04T11:19:31.825Z,9.77
2018-08-04T11:22:00.806Z,7.20
2018-08-04T11:24:29.863Z,8.30
2018-08-04T11:26:58.862Z,6.97
2018-08-04T11:29:27.886Z,7.00
2018-08-04T11:31:56.963Z,8.60
2018-08-04T11:34:25.922Z,8.63
2018-08-04T11:36:54.876Z,6.73
2018-08-04T11:39:23.902Z,7.17
2018-08-04T11:41:52.894Z,7.47
2018-08-04T11:44:21.858Z,7.03
2018-08-04T11:46:50.555Z,7.83
2018-08-04T11:49:19.385Z,6.67
2018-08-04T11:51:48.360Z,6.57
2018-08-04T11:54:17.314Z,6.27
2018-08-04T11:56:46.315Z,7.07
2018-08-04T11:59:15.266Z,5.80
2018-08-04T12:01:44.250Z,7.23
2018-08-04T12:04:13.274Z,9.27
2018-08-04T12:06:42.258Z,6.67
2018-08-04T12:09:13.355Z,6.60
2018-08-04T12:11:42.714Z,6.33
2018-08-04T12:14:11.695Z,6.23
2018-08-04T12:16:40.698Z,9.37
2018-08-04T12:19:09.671Z,5.77
2018-08-04T12:21:38.639Z,5.77
2018-08-04T12:24:07.649Z,7.77
2018-08-04T12:26:36.663Z,6.20
2018-08-04T12:31:33.885Z,7.63
2018-08-04T12:34:02.879Z,8.43
2018-08-04T12:36:31.864Z,4.90
2018-08-04T12:39:00.882Z,5.47
2018-08-04T12:41:29.909Z,5.23
2018-08-04T12:43:59.291Z,5.33
2018-08-04T12:46:28.257Z,6.80
2018-08-04T12:48:57.319Z,5.70
2018-08-04T12:51:26.287Z,6.63
2018-08-04T12:53:55.254Z,5.30
2018-08-04T12:56:24.207Z,5.00
2018-08-04T12:58:53.266Z,5.17
2018-08-04T13:01:22.280Z,5.83
2018-08-04T13:03:51.493Z,5.40
2018-08-04T13:06:20.438Z,5.60
2018-08-04T13:08:49.442Z,7.70
2018-08-04T13:11:18.382Z,5.60
2018-08-04T13:13:47.346Z,5.70
2018-08-04T13:16:16.297Z,5.33
2018-08-04T13:18:45.262Z,6.40
2018-08-04T13:21:14.218Z,6.03
2018-08-04T13:23:43.163Z,9.83
2018-08-04T13:26:12.117Z,6.47
2018-08-04T13:28:41.164Z,6.27
2018-08-04T13:31:10.126Z,6.87
2018-08-04T13:33:39.100Z,7.07
2018-08-04T13:36:08.059Z,6.67
2018-08-04T13:38:37.046Z,6.67
2018-08-04T13:41:06.018Z,7.10
2018-08-04T13:43:35.041Z,6.10
2018-08-04T13:46:03.972Z,7.07
2018-08-04T13:48:32.934Z,9.57
2018-08-04T13:51:01.982Z,12.83
2018-08-04T13:53:30.962Z,6.73
2018-08-04T13:56:02.330Z,8.20
2018-08-04T13:58:32.324Z,6.53
2018-08-04T14:01:02.798Z,6.43
2018-08-04T14:03:31.890Z,6.90
2018-08-04T14:06:01.167Z,7.03
2018-08-04T14:08:30.253Z,9.10
2018-08-04T14:10:59.359Z,6.70
2018-08-04T14:13:28.366Z,7.67
2018-08-04T14:15:57.390Z,6.50
2018-08-04T14:18:26.374Z,6.63
2018-08-04T14:20:55.334Z,6.90
2018-08-04T14:23:24.310Z,9.87
2018-08-04T14:25:53.319Z,8.33
2018-08-04T14:28:22.359Z,7.33
2018-08-04T14:30:51.295Z,9.13
2018-08-04T14:33:20.604Z,7.87
2018-08-04T14:35:49.985Z,7.97
2018-08-04T14:38:19.130Z,7.27
2018-08-04T14:40:48.130Z,7.33
2018-08-04T14:43:17.125Z,8.00
2018-08-04T14:45:46.094Z,7.60
2018-08-04T14:48:15.166Z,9.03
2018-08-04T14:50:44.131Z,7.60
2018-08-04T14:53:13.107Z,8.30
2018-08-04T14:55:42.054Z,7.67
2018-08-04T14:58:11.018Z,7.77
2018-08-04T15:00:40.028Z,7.60
2018-08-04T15:03:09.161Z,9.53
2018-08-04T15:05:38.145Z,12.07
2018-08-04T15:08:07.107Z,8.43
2018-08-04T15:10:36.078Z,7.93
2018-08-04T15:13:05.136Z,8.10
2018-08-04T15:15:34.110Z,7.47
2018-08-04T15:18:03.104Z,10.40
2018-08-04T15:20:32.063Z,8.43
2018-08-04T15:23:01.151Z,7.73
2018-08-04T15:25:30.162Z,8.20
2018-08-04T15:27:59.146Z,7.20
2018-08-04T15:30:28.139Z,10.57
2018-08-04T15:32:57.164Z,7.90
2018-08-04T15:35:26.128Z,7.67
2018-08-04T15:37:55.126Z,7.27
2018-08-04T15:40:24.183Z,7.33
2018-08-04T15:42:53.134Z,7.90
2018-08-04T15:45:22.090Z,9.03
2018-08-04T15:47:51.132Z,8.23
2018-08-04T15:50:20.162Z,8.50
2018-08-04T15:52:49.211Z,8.93
2018-08-04T15:55:18.241Z,8.77
2018-08-04T15:57:47.255Z,9.40
2018-08-04T16:00:16.278Z,12.17
2018-08-04T16:02:45.323Z,10.33
2018-08-04T16:05:14.468Z,10.07
2018-08-04T16:07:43.490Z,11.30
2018-08-04T16:10:12.462Z,10.93
2018-08-04T16:12:41.546Z,9.17
2018-08-04T16:15:10.520Z,10.07
2018-08-04T16:17:39.516Z,10.13
2018-08-04T16:20:12.090Z,9.17
2018-08-04T16:22:41.299Z,9.20
2018-08-04T16:25:10.297Z,9.20
2018-08-04T16:27:39.303Z,9.60
2018-08-04T16:30:09.394Z,9.57
2018-08-04T16:32:38.737Z,11.63
2018-08-04T16:35:08.594Z,9.40
2018-08-04T16:37:37.606Z,10.33
2018-08-04T16:40:06.760Z,9.33
2018-08-04T16:42:35.834Z,10.07
2018-08-04T16:45:05.306Z,10.33
2018-08-04T16:47:34.307Z,9.63
2018-08-04T16:50:03.350Z,10.00
2018-08-04T16:52:32.461Z,10.63
2018-08-04T16:55:01.515Z,8.93
2018-08-04T16:57:30.531Z,9.73
2018-08-04T16:59:59.710Z,10.37
2018-08-04T17:02:28.750Z,9.07
2018-08-04T17:04:57.758Z,9.60
2018-08-04T17:07:26.866Z,9.43
2018-08-04T17:09:55.871Z,8.57
2018-08-04T17:12:24.870Z,9.73
2018-08-04T17:14:53.843Z,10.57
2018-08-04T17:17:22.796Z,9.43
2018-08-04T17:19:51.845Z,9.07
2018-08-04T17:22:20.910Z,10.17
2018-08-04T17:24:50.469Z,9.83
2018-08-04T17:27:19.386Z,8.47
2018-08-04T17:29:48.376Z,9.07
2018-08-04T17:32:17.350Z,10.67
2018-08-04T17:34:46.327Z,10.70
2018-08-04T17:37:15.392Z,10.03
2018-08-04T17:39:44.309Z,9.37
2018-08-04T17:42:13.337Z,9.10
2018-08-04T17:44:42.438Z,8.50
2018-08-04T17:47:11.418Z,8.63
2018-08-04T17:49:40.387Z,8.23
2018-08-04T17:52:09.355Z,9.27
2018-08-04T17:54:38.410Z,8.83
2018-08-04T17:57:07.449Z,9.27
2018-08-04T17:59:36.347Z,8.50
2018-08-04T18:02:05.692Z,8.73
2018-08-04T18:04:34.700Z,9.57
2018-08-04T18:07:03.783Z,8.50
2018-08-04T18:09:32.802Z,9.33
2018-08-04T18:12:01.806Z,9.17
2018-08-04T18:14:30.756Z,8.97
2018-08-04T18:16:59.745Z,11.10
2018-08-04T18:19:28.730Z,9.63
2018-08-04T18:21:57.716Z,10.43
2018-08-04T18:24:26.650Z,10.67
2018-08-04T18:29:42.173Z,10.10
2018-08-04T18:32:11.360Z,12.00
2018-08-04T18:34:40.290Z,10.17
2018-08-04T18:37:09.385Z,10.07
2018-08-04T18:39:38.315Z,10.63
2018-08-04T18:42:07.502Z,11.53
2018-08-04T18:44:36.523Z,9.53
2018-08-04T18:47:05.649Z,10.37
2018-08-04T18:49:34.692Z,9.53
2018-08-04T18:52:03.690Z,10.03
2018-08-04T18:54:32.739Z,9.73
2018-08-04T18:57:01.843Z,9.40
2018-08-04T18:59:30.815Z,10.37
2018-08-04T19:01:59.780Z,9.53
2018-08-04T19:04:28.910Z,11.13
2018-08-04T19:06:57.870Z,9.73
2018-08-04T19:09:26.939Z,10.03
2018-08-04T19:11:55.938Z,10.57
2018-08-04T19:14:24.914Z,10.10
2018-08-04T19:16:54.051Z,11.97
2018-08-04T19:19:23.028Z,10.47
2018-08-04T19:21:52.258Z,10.07
2018-08-04T19:24:21.239Z,10.33
2018-08-04T19:26:50.198Z,10.30
2018-08-04T19:29:19.185Z,11.03
2018-08-04T19:31:48.138Z,9.87
2018-08-04T19:34:17.278Z,12.20
2018-08-04T19:36:46.357Z,12.10
2018-08-04T19:39:15.350Z,11.83
2018-08-04T19:41:44.498Z,10.80
2018-08-04T19:44:13.538Z,13.23
2018-08-04T19:46:42.547Z,13.00
2018-08-04T19:49:11.534Z,12.60
2018-08-04T19:51:40.494Z,12.53
2018-08-04T19:54:09.516Z,11.87
2018-08-04T19:56:38.723Z,11.80
2018-08-04T19:59:07.915Z,10.73
2018-08-04T20:01:37.050Z,11.60
2018-08-04T20:04:06.163Z,11.13
2018-08-04T20:06:35.182Z,11.37
2018-08-04T20:09:05.999Z,12.17
2018-08-04T20:11:35.205Z,11.83
2018-08-04T20:14:04.315Z,11.50
2018-08-04T20:16:33.290Z,11.37
2018-08-04T20:19:02.302Z,11.43
2018-08-04T20:21:31.491Z,11.43
2018-08-04T20:24:00.542Z,12.30
2018-08-04T20:26:29.583Z,11.80
2018-08-04T20:28:58.567Z,11.10
2018-08-04T20:31:28.630Z,12.57
2018-08-04T20:33:57.916Z,11.53
2018-08-04T20:36:26.918Z,12.20
2018-08-04T20:38:55.930Z,13.10
2018-08-04T20:41:24.902Z,12.90
2018-08-04T20:43:53.868Z,11.60
2018-08-04T20:46:22.879Z,11.30
2018-08-04T20:48:51.836Z,11.50
2018-08-04T20:51:20.678Z,11.03
2018-08-04T20:53:49.989Z,11.43
2018-08-04T20:56:19.012Z,11.17
2018-08-04T20:58:48.184Z,12.47
2018-08-04T21:01:28.838Z,11.63
2018-08-04T21:03:58.043Z,12.07
2018-08-04T21:06:27.150Z,11.23
2018-08-04T21:08:56.512Z,11.97
2018-08-04T21:11:25.582Z,12.60
2018-08-04T21:13:54.583Z,12.13
2018-08-04T21:16:23.786Z,12.07
2018-08-04T21:18:54.003Z,11.90
2018-08-04T21:21:23.017Z,11.77
2018-08-04T21:23:52.566Z,12.43
2018-08-04T21:26:21.850Z,12.13
2018-08-04T21:28:50.896Z,12.17
2018-08-04T21:31:19.882Z,12.47
2018-08-04T21:33:48.895Z,11.60
2018-08-04T21:36:17.879Z,12.00
2018-08-04T21:38:47.997Z,12.60
2018-08-04T21:41:17.000Z,11.73
2018-08-04T21:43:45.978Z,11.63
2018-08-04T21:46:15.179Z,11.97
2018-08-04T21:48:44.664Z,11.63
2018-08-04T21:51:14.737Z,12.33
2018-08-04T21:53:43.694Z,12.50
2018-08-04T21:56:12.826Z,11.17
2018-08-04T21:58:41.938Z,10.67
2018-08-04T22:01:12.997Z,10.53
2018-08-04T22:03:44.395Z,11.10
2018-08-04T22:06:16.331Z,10.53
2018-08-04T22:09:00.624Z,11.97
2018-08-04T22:11:29.671Z,11.83
2018-08-04T22:13:58.802Z,11.83
2018-08-04T22:16:28.862Z,12.57
2018-08-04T22:18:57.953Z,11.07
2018-08-04T22:21:26.951Z,12.10
2018-08-04T22:23:56.519Z,12.83
2018-08-04T22:26:25.492Z,12.60
2018-08-04T22:28:54.632Z,13.53
2018-08-04T22:31:23.610Z,13.63
2018-08-04T22:33:52.748Z,14.03
2018-08-04T22:36:21.902Z,13.10
2018-08-04T22:38:51.019Z,13.07
2018-08-04T22:41:20.134Z,13.80
2018-08-04T22:43:49.285Z,13.43
2018-08-04T22:46:18.371Z,13.90
2018-08-04T22:48:48.563Z,14.17
2018-08-04T22:51:28.261Z,14.03
2018-08-04T22:53:57.355Z,14.50
2018-08-04T22:56:26.726Z,13.67
2018-08-04T22:58:55.820Z,14.57
2018-08-04T23:01:25.267Z,13.57
2018-08-04T23:03:54.263Z,15.60
2018-08-04T23:06:23.254Z,13.50
2018-08-04T23:08:52.400Z,15.67
2018-08-04T23:11:21.372Z,16.53
2018-08-04T23:13:50.525Z,14.43
2018-08-04T23:16:19.569Z,16.20
2018-08-04T23:18:48.626Z,16.93
2018-08-04T23:21:17.618Z,16.10
2018-08-04T23:23:46.602Z,15.57
2018-08-04T23:26:15.617Z,16.33
2018-08-04T23:28:44.583Z,16.63
2018-08-04T23:31:13.570Z,16.67
2018-08-04T23:33:42.551Z,16.67
2018-08-04T23:36:11.614Z,17.07
2018-08-04T23:38:40.666Z,16.67
2018-08-04T23:41:09.722Z,16.50
2018-08-04T23:43:38.754Z,16.87
2018-08-04T23:46:08.240Z,15.90
2018-08-04T23:48:37.263Z,16.67
2018-08-04T23:51:05.987Z,15.60
2018-08-04T23:53:34.950Z,16.67
2018-08-04T23:56:03.939Z,16.50
2018-08-04T23:58:32.908Z,16.07
